sensor_id;sensor_type;location;lat;lon;timestamp;pressure;altitude;pressure_sealevel;temperature
40245;BMP280;25963;42.694;23.600;2024-02-15T00:00:15;95543.38;;;2.68
40245;BMP280;25963;42.694;23.600;2024-02-15T00:02:42;95587.03;;;3.04
40245;BMP280;25963;42.694;23.600;2024-02-15T00:05:10;95565.97;;;2.85
40245;BMP280;25963;42.694;23.600;2024-02-15T00:07:35;95591.63;;;3.00
40245;BMP280;25963;42.694;23.600;2024-02-15T00:10:01;95595.34;;;3.03
40245;BMP280;25963;42.694;23.600;2024-02-15T00:12:26;95596.09;;;3.03
40245;BMP280;25963;42.694;23.600;2024-02-15T00:14:52;95540.50;;;2.78
40245;BMP280;25963;42.694;23.600;2024-02-15T00:17:17;95587.03;;;3.04
40245;BMP280;25963;42.694;23.600;2024-02-15T00:19:43;95584.38;;;3.04
40245;BMP280;25963;42.694;23.600;2024-02-15T00:22:09;95588.31;;;2.96
40245;BMP280;25963;42.694;23.600;2024-02-15T00:24:36;95596.97;;;2.97
40245;BMP280;25963;42.694;23.600;2024-02-15T00:27:02;95594.34;;;2.97
40245;BMP280;25963;42.694;23.600;2024-02-15T00:29:28;95589.13;;;2.93
40245;BMP280;25963;42.694;23.600;2024-02-15T00:31:54;95584.69;;;2.90
40245;BMP280;25963;42.694;23.600;2024-02-15T00:34:20;95592.22;;;2.92
40245;BMP280;25963;42.694;23.600;2024-02-15T00:36:46;95578.16;;;2.79
40245;BMP280;25963;42.694;23.600;2024-02-15T00:39:11;95588.09;;;2.91
40245;BMP280;25963;42.694;23.600;2024-02-15T00:41:44;95581.47;;;2.83
40245;BMP280;25963;42.694;23.600;2024-02-15T00:44:10;95597.97;;;2.87
40245;BMP280;25963;42.694;23.600;2024-02-15T00:46:36;95579.31;;;2.78
40245;BMP280;25963;42.694;23.600;2024-02-15T00:49:02;95593.78;;;2.89
40245;BMP280;25963;42.694;23.600;2024-02-15T00:51:27;95595.72;;;2.85
40245;BMP280;25963;42.694;23.600;2024-02-15T00:53:53;95597.69;;;2.81
40245;BMP280;25963;42.694;23.600;2024-02-15T00:56:18;95603.25;;;2.87
40245;BMP280;25963;42.694;23.600;2024-02-15T00:58:43;95601.00;;;2.85
40245;BMP280;25963;42.694;23.600;2024-02-15T01:01:09;95603.25;;;2.87
40245;BMP280;25963;42.694;23.600;2024-02-15T01:03:35;95557.00;;;2.63
40245;BMP280;25963;42.694;23.600;2024-02-15T01:06:01;95588.34;;;2.77
40245;BMP280;25963;42.694;23.600;2024-02-15T01:08:27;95601.06;;;2.82
40245;BMP280;25963;42.694;23.600;2024-02-15T01:10:53;95595.41;;;2.83
40245;BMP280;25963;42.694;23.600;2024-02-15T01:13:18;95528.19;;;2.36
40245;BMP280;25963;42.694;23.600;2024-02-15T01:15:44;95564.59;;;2.61
40245;BMP280;25963;42.694;23.600;2024-02-15T01:18:11;95556.84;;;2.54
40245;BMP280;25963;42.694;23.600;2024-02-15T01:20:37;95593.28;;;2.75
40245;BMP280;25963;42.694;23.600;2024-02-15T01:23:02;95596.69;;;2.75
40245;BMP280;25963;42.694;23.600;2024-02-15T01:25:28;95574.63;;;2.66
40245;BMP280;25963;42.694;23.600;2024-02-15T01:27:53;95521.50;;;2.31
40245;BMP280;25963;42.694;23.600;2024-02-15T01:30:19;95591.34;;;2.79
40245;BMP280;25963;42.694;23.600;2024-02-15T01:32:44;95589.78;;;2.81
40245;BMP280;25963;42.694;23.600;2024-02-15T01:35:10;95583.78;;;2.81
40245;BMP280;25963;42.694;23.600;2024-02-15T01:37:35;95574.16;;;2.71
40245;BMP280;25963;42.694;23.600;2024-02-15T01:40:02;95589.56;;;2.72
40245;BMP280;25963;42.694;23.600;2024-02-15T01:42:28;95523.06;;;2.29
40245;BMP280;25963;42.694;23.600;2024-02-15T01:44:53;95581.06;;;2.65
40245;BMP280;25963;42.694;23.600;2024-02-15T01:47:19;95526.91;;;2.24
40245;BMP280;25963;42.694;23.600;2024-02-15T01:49:45;95549.41;;;2.29
40245;BMP280;25963;42.694;23.600;2024-02-15T01:52:12;95574.66;;;2.46
40245;BMP280;25963;42.694;23.600;2024-02-15T01:54:39;95583.56;;;2.52
40245;BMP280;25963;42.694;23.600;2024-02-15T01:57:04;95531.28;;;2.11
40245;BMP280;25963;42.694;23.600;2024-02-15T01:59:30;95581.00;;;2.48
40245;BMP280;25963;42.694;23.600;2024-02-15T02:01:56;95592.22;;;2.53
40245;BMP280;25963;42.694;23.600;2024-02-15T02:04:22;95543.72;;;2.11
40245;BMP280;25963;42.694;23.600;2024-02-15T02:06:47;95579.59;;;2.44
40245;BMP280;25963;42.694;23.600;2024-02-15T02:09:13;95586.25;;;2.48
40245;BMP280;25963;42.694;23.600;2024-02-15T02:11:40;95545.53;;;2.14
40245;BMP280;25963;42.694;23.600;2024-02-15T02:14:06;95582.50;;;2.50
40245;BMP280;25963;42.694;23.600;2024-02-15T02:16:31;95550.28;;;2.22
40245;BMP280;25963;42.694;23.600;2024-02-15T02:19:00;95585.59;;;2.44
40245;BMP280;25963;42.694;23.600;2024-02-15T02:21:25;95596.81;;;2.48
40245;BMP280;25963;42.694;23.600;2024-02-15T02:24:02;95593.03;;;2.50
40245;BMP280;25963;42.694;23.600;2024-02-15T02:26:28;95554.53;;;2.16
40245;BMP280;25963;42.694;23.600;2024-02-15T02:28:55;95597.22;;;2.47
40245;BMP280;25963;42.694;23.600;2024-02-15T02:31:20;95527.41;;;1.96
40245;BMP280;25963;42.694;23.600;2024-02-15T02:33:49;95596.81;;;2.29
40245;BMP280;25963;42.694;23.600;2024-02-15T02:36:17;95626.16;;;2.51
40245;BMP280;25963;42.694;23.600;2024-02-15T02:38:43;95623.91;;;2.49
40245;BMP280;25963;42.694;23.600;2024-02-15T02:41:13;95635.19;;;2.50
40245;BMP280;25963;42.694;23.600;2024-02-15T02:43:40;95527.69;;;1.82
40245;BMP280;25963;42.694;23.600;2024-02-15T02:46:05;95630.66;;;2.50
40245;BMP280;25963;42.694;23.600;2024-02-15T02:48:31;95627.28;;;2.50
40245;BMP280;25963;42.694;23.600;2024-02-15T02:50:57;95605.19;;;2.43
40245;BMP280;25963;42.694;23.600;2024-02-15T02:53:23;95602.97;;;2.42
40245;BMP280;25963;42.694;23.600;2024-02-15T02:55:49;95616.41;;;2.47
40245;BMP280;25963;42.694;23.600;2024-02-15T02:58:15;95606.06;;;2.37
40245;BMP280;25963;42.694;23.600;2024-02-15T03:00:40;95539.56;;;1.90
40245;BMP280;25963;42.694;23.600;2024-02-15T03:03:05;95555.91;;;2.01
40245;BMP280;25963;42.694;23.600;2024-02-15T03:05:31;95561.00;;;2.12
40245;BMP280;25963;42.694;23.600;2024-02-15T03:07:56;95619.03;;;2.47
40245;BMP280;25963;42.694;23.600;2024-02-15T03:10:22;95628.50;;;2.45
40245;BMP280;25963;42.694;23.600;2024-02-15T03:12:49;95631.13;;;2.45
40245;BMP280;25963;42.694;23.600;2024-02-15T03:15:14;95627.34;;;2.46
40245;BMP280;25963;42.694;23.600;2024-02-15T03:17:41;95627.75;;;2.44
40245;BMP280;25963;42.694;23.600;2024-02-15T03:20:08;95634.09;;;2.47
40245;BMP280;25963;42.694;23.600;2024-02-15T03:22:37;95594.03;;;2.16
40245;BMP280;25963;42.694;23.600;2024-02-15T03:25:06;95637.88;;;2.46
40245;BMP280;25963;42.694;23.600;2024-02-15T03:27:36;95606.00;;;2.21
40245;BMP280;25963;42.694;23.600;2024-02-15T03:30:06;95638.28;;;2.44
40245;BMP280;25963;42.694;23.600;2024-02-15T03:32:31;95624.03;;;2.42
40245;BMP280;25963;42.694;23.600;2024-02-15T03:34:56;95625.50;;;2.43
40245;BMP280;25963;42.694;23.600;2024-02-15T03:37:22;95611.78;;;2.32
40245;BMP280;25963;42.694;23.600;2024-02-15T03:39:47;95633.81;;;2.41
40245;BMP280;25963;42.694;23.600;2024-02-15T03:42:12;95575.16;;;1.98
40245;BMP280;25963;42.694;23.600;2024-02-15T03:44:38;95628.56;;;2.41
40245;BMP280;25963;42.694;23.600;2024-02-15T03:47:04;95588.19;;;2.05
40245;BMP280;25963;42.694;23.600;2024-02-15T03:49:30;95640.97;;;2.41
40245;BMP280;25963;42.694;23.600;2024-02-15T03:51:57;95636.50;;;2.38
40245;BMP280;25963;42.694;23.600;2024-02-15T03:54:25;95632.13;;;2.31
40245;BMP280;25963;42.694;23.600;2024-02-15T03:56:50;95640.69;;;2.35
40245;BMP280;25963;42.694;23.600;2024-02-15T03:59:20;95644.13;;;2.32
40245;BMP280;25963;42.694;23.600;2024-02-15T04:01:55;95640.69;;;2.35
40245;BMP280;25963;42.694;23.600;2024-02-15T04:04:22;95637.31;;;2.35
40245;BMP280;25963;42.694;23.600;2024-02-15T04:06:51;95644.53;;;2.31
40245;BMP280;25963;42.694;23.600;2024-02-15T04:09:19;95607.78;;;2.04
40245;BMP280;25963;42.694;23.600;2024-02-15T04:11:47;95559.84;;;1.70
40245;BMP280;25963;42.694;23.600;2024-02-15T04:14:16;95645.69;;;2.30
40245;BMP280;25963;42.694;23.600;2024-02-15T04:16:43;95538.22;;;1.59
40245;BMP280;25963;42.694;23.600;2024-02-15T04:19:09;95608.66;;;1.94
40245;BMP280;25963;42.694;23.600;2024-02-15T04:21:34;95643.53;;;2.25
40245;BMP280;25963;42.694;23.600;2024-02-15T04:23:59;95648.06;;;2.24
40245;BMP280;25963;42.694;23.600;2024-02-15T04:26:25;95647.31;;;2.24
40245;BMP280;25963;42.694;23.600;2024-02-15T04:28:53;95636.91;;;2.17
40245;BMP280;25963;42.694;23.600;2024-02-15T04:31:18;95648.19;;;2.17
40245;BMP280;25963;42.694;23.600;2024-02-15T04:33:44;95623.56;;;2.04
40245;BMP280;25963;42.694;23.600;2024-02-15T04:36:09;95611.81;;;1.85
40245;BMP280;25963;42.694;23.600;2024-02-15T04:38:34;95638.16;;;2.09
40245;BMP280;25963;42.694;23.600;2024-02-15T04:41:03;95647.13;;;2.11
40245;BMP280;25963;42.694;23.600;2024-02-15T04:43:35;95643.09;;;2.07
40245;BMP280;25963;42.694;23.600;2024-02-15T04:46:03;95656.88;;;2.14
40245;BMP280;25963;42.694;23.600;2024-02-15T04:48:32;95657.22;;;2.16
40245;BMP280;25963;42.694;23.600;2024-02-15T04:50:59;95651.66;;;2.11
40245;BMP280;25963;42.694;23.600;2024-02-15T04:53:25;95602.19;;;1.79
40245;BMP280;25963;42.694;23.600;2024-02-15T04:55:50;95654.34;;;2.07
40245;BMP280;25963;42.694;23.600;2024-02-15T04:58:16;95663.78;;;2.05
40245;BMP280;25963;42.694;23.600;2024-02-15T05:00:41;95635.09;;;1.87
40245;BMP280;25963;42.694;23.600;2024-02-15T05:03:07;95663.72;;;2.08
40245;BMP280;25963;42.694;23.600;2024-02-15T05:05:33;95662.31;;;2.04
40245;BMP280;25963;42.694;23.600;2024-02-15T05:07:58;95601.75;;;1.57
40245;BMP280;25963;42.694;23.600;2024-02-15T05:10:26;95663.19;;;1.94
40245;BMP280;25963;42.694;23.600;2024-02-15T05:12:52;95678.59;;;1.95
40245;BMP280;25963;42.694;23.600;2024-02-15T05:15:18;95679.69;;;1.98
40245;BMP280;25963;42.694;23.600;2024-02-15T05:17:48;95673.34;;;1.95
40245;BMP280;25963;42.694;23.600;2024-02-15T05:20:13;95691.34;;;1.97
40245;BMP280;25963;42.694;23.600;2024-02-15T05:22:40;95675.41;;;1.84
40245;BMP280;25963;42.694;23.600;2024-02-15T05:25:08;95648.25;;;1.64
40245;BMP280;25963;42.694;23.600;2024-02-15T05:27:34;95689.88;;;1.96
40245;BMP280;25963;42.694;23.600;2024-02-15T05:30:02;95648.72;;;1.55
40245;BMP280;25963;42.694;23.600;2024-02-15T05:32:32;95665.53;;;1.65
40245;BMP280;25963;42.694;23.600;2024-02-15T05:34:58;95681.81;;;1.83
40245;BMP280;25963;42.694;23.600;2024-02-15T05:37:23;95707.22;;;1.93
40245;BMP280;25963;42.694;23.600;2024-02-15T05:39:48;95699.38;;;1.90
40245;BMP280;25963;42.694;23.600;2024-02-15T05:42:19;95704.94;;;1.95
40245;BMP280;25963;42.694;23.600;2024-02-15T05:44:44;95662.09;;;1.68
40245;BMP280;25963;42.694;23.600;2024-02-15T05:47:11;95710.19;;;1.95
40245;BMP280;25963;42.694;23.600;2024-02-15T05:49:36;95695.53;;;1.94
40245;BMP280;25963;42.694;23.600;2024-02-15T05:52:02;95710.97;;;1.92
40245;BMP280;25963;42.694;23.600;2024-02-15T05:54:28;95644.66;;;1.51
40245;BMP280;25963;42.694;23.600;2024-02-15T05:56:53;95614.56;;;1.29
40245;BMP280;25963;42.694;23.600;2024-02-15T05:59:20;95728.16;;;2.00
40245;BMP280;25963;42.694;23.600;2024-02-15T06:01:46;95731.09;;;2.06
40245;BMP280;25963;42.694;23.600;2024-02-15T06:04:14;95681.97;;;1.72
40245;BMP280;25963;42.694;23.600;2024-02-15T06:06:40;95722.88;;;2.04
40245;BMP280;25963;42.694;23.600;2024-02-15T06:09:05;95734.44;;;2.10
40245;BMP280;25963;42.694;23.600;2024-02-15T06:11:31;95743.78;;;2.14
40245;BMP280;25963;42.694;23.600;2024-02-15T06:13:56;95662.97;;;1.58
40245;BMP280;25963;42.694;23.600;2024-02-15T06:16:22;95696.50;;;1.80
40245;BMP280;25963;42.694;23.600;2024-02-15T06:18:47;95749.38;;;2.16
40245;BMP280;25963;42.694;23.600;2024-02-15T06:21:13;95719.88;;;2.02
40245;BMP280;25963;42.694;23.600;2024-02-15T06:23:38;95750.47;;;2.19
40245;BMP280;25963;42.694;23.600;2024-02-15T06:26:04;95747.00;;;2.25
40245;BMP280;25963;42.694;23.600;2024-02-15T06:28:30;95637.47;;;1.55
40245;BMP280;25963;42.694;23.600;2024-02-15T06:31:14;95739.94;;;2.19
40245;BMP280;25963;42.694;23.600;2024-02-15T06:33:58;95691.47;;;1.90
40245;BMP280;25963;42.694;23.600;2024-02-15T06:36:49;95755.03;;;2.38
40245;BMP280;25963;42.694;23.600;2024-02-15T06:39:33;95704.88;;;1.99
40245;BMP280;25963;42.694;23.600;2024-02-15T06:42:16;95760.22;;;2.45
40245;BMP280;25963;42.694;23.600;2024-02-15T06:44:45;95768.00;;;2.52
40245;BMP280;25963;42.694;23.600;2024-02-15T06:47:11;95765.72;;;2.54
40245;BMP280;25963;42.694;23.600;2024-02-15T06:49:38;95661.94;;;1.78
40245;BMP280;25963;42.694;23.600;2024-02-15T06:52:06;95767.25;;;2.52
40245;BMP280;25963;42.694;23.600;2024-02-15T06:54:33;95771.06;;;2.51
40245;BMP280;25963;42.694;23.600;2024-02-15T06:56:59;95731.66;;;2.20
40245;BMP280;25963;42.694;23.600;2024-02-15T06:59:24;95771.84;;;2.47
40245;BMP280;25963;42.694;23.600;2024-02-15T07:01:50;95781.97;;;2.49
40245;BMP280;25963;42.694;23.600;2024-02-15T07:04:18;95778.22;;;2.50
40245;BMP280;25963;42.694;23.600;2024-02-15T07:06:44;95777.56;;;2.42
40245;BMP280;25963;42.694;23.600;2024-02-15T07:09:13;95776.81;;;2.42
40245;BMP280;25963;42.694;23.600;2024-02-15T07:11:40;95761.66;;;2.26
40245;BMP280;25963;42.694;23.600;2024-02-15T07:14:05;95761.31;;;2.24
40245;BMP280;25963;42.694;23.600;2024-02-15T07:16:32;95772.91;;;2.27
40245;BMP280;25963;42.694;23.600;2024-02-15T07:18:58;95770.94;;;2.34
40245;BMP280;25963;42.694;23.600;2024-02-15T07:21:25;95671.47;;;1.69
40245;BMP280;25963;42.694;23.600;2024-02-15T07:23:55;95758.44;;;2.38
40245;BMP280;25963;42.694;23.600;2024-02-15T07:26:24;95771.56;;;2.42
40245;BMP280;25963;42.694;23.600;2024-02-15T07:28:53;95766.66;;;2.40
40245;BMP280;25963;42.694;23.600;2024-02-15T07:31:22;95769.97;;;2.48
40245;BMP280;25963;42.694;23.600;2024-02-15T07:33:48;95766.47;;;2.55
40245;BMP280;25963;42.694;23.600;2024-02-15T07:36:19;95767.97;;;2.56
40245;BMP280;25963;42.694;23.600;2024-02-15T07:38:46;95773.22;;;2.56
40245;BMP280;25963;42.694;23.600;2024-02-15T07:41:13;95776.00;;;2.68
40245;BMP280;25963;42.694;23.600;2024-02-15T07:43:39;95766.88;;;2.96
40245;BMP280;25963;42.694;23.600;2024-02-15T07:46:06;95758.03;;;3.26
40245;BMP280;25963;42.694;23.600;2024-02-15T07:48:31;95755.69;;;3.31
40245;BMP280;25963;42.694;23.600;2024-02-15T07:50:57;95768.28;;;3.59
40245;BMP280;25963;42.694;23.600;2024-02-15T07:53:24;95698.16;;;3.42
40245;BMP280;25963;42.694;23.600;2024-02-15T07:55:49;95731.28;;;3.79
40245;BMP280;25963;42.694;23.600;2024-02-15T07:58:15;95703.41;;;3.78
40245;BMP280;25963;42.694;23.600;2024-02-15T08:00:44;95760.28;;;4.31
40245;BMP280;25963;42.694;23.600;2024-02-15T08:03:09;95756.69;;;4.25
40245;BMP280;25963;42.694;23.600;2024-02-15T08:05:35;95706.56;;;3.89
40245;BMP280;25963;42.694;23.600;2024-02-15T08:08:02;95754.84;;;4.38
40245;BMP280;25963;42.694;23.600;2024-02-15T08:10:29;95754.81;;;4.54
40245;BMP280;25963;42.694;23.600;2024-02-15T08:12:55;95733.66;;;4.54
40245;BMP280;25963;42.694;23.600;2024-02-15T08:15:23;95751.78;;;4.84
40245;BMP280;25963;42.694;23.600;2024-02-15T08:17:49;95730.16;;;4.73
40245;BMP280;25963;42.694;23.600;2024-02-15T08:20:15;95745.00;;;4.83
40245;BMP280;25963;42.694;23.600;2024-02-15T08:22:47;95714.84;;;4.81
40245;BMP280;25963;42.694;23.600;2024-02-15T08:25:13;95746.81;;;5.15
40245;BMP280;25963;42.694;23.600;2024-02-15T08:27:41;95745.47;;;5.36
40245;BMP280;25963;42.694;23.600;2024-02-15T08:30:09;95738.06;;;5.43
40245;BMP280;25963;42.694;23.600;2024-02-15T08:32:39;95736.16;;;5.56
40245;BMP280;25963;42.694;23.600;2024-02-15T08:35:06;95706.53;;;5.49
40245;BMP280;25963;42.694;23.600;2024-02-15T08:37:32;95737.97;;;5.97
40245;BMP280;25963;42.694;23.600;2024-02-15T08:40:01;95740.41;;;6.04
40245;BMP280;25963;42.694;23.600;2024-02-15T08:42:26;95738.22;;;6.24
40245;BMP280;25963;42.694;23.600;2024-02-15T08:44:52;95681.69;;;5.93
40245;BMP280;25963;42.694;23.600;2024-02-15T08:47:17;95721.16;;;6.25
40245;BMP280;25963;42.694;23.600;2024-02-15T08:49:43;95688.50;;;6.16
40245;BMP280;25963;42.694;23.600;2024-02-15T08:52:08;95749.09;;;6.51
40245;BMP280;25963;42.694;23.600;2024-02-15T08:54:34;95686.59;;;6.16
40245;BMP280;25963;42.694;23.600;2024-02-15T08:56:59;95748.16;;;6.67
40245;BMP280;25963;42.694;23.600;2024-02-15T08:59:26;95754.25;;;6.89
40245;BMP280;25963;42.694;23.600;2024-02-15T09:01:53;95749.53;;;7.15
40245;BMP280;25963;42.694;23.600;2024-02-15T09:04:19;95753.47;;;7.32
40245;BMP280;25963;42.694;23.600;2024-02-15T09:06:46;95735.22;;;7.43
40245;BMP280;25963;42.694;23.600;2024-02-15T09:09:11;95740.41;;;7.47
40245;BMP280;25963;42.694;23.600;2024-02-15T09:11:37;95729.66;;;7.50
40245;BMP280;25963;42.694;23.600;2024-02-15T09:14:02;95744.47;;;7.60
40245;BMP280;25963;42.694;23.600;2024-02-15T09:16:28;95746.97;;;7.64
40245;BMP280;25963;42.694;23.600;2024-02-15T09:18:53;95726.75;;;7.66
40245;BMP280;25963;42.694;23.600;2024-02-15T09:21:19;95736.53;;;7.69
40245;BMP280;25963;42.694;23.600;2024-02-15T09:23:46;95734.03;;;7.84
40245;BMP280;25963;42.694;23.600;2024-02-15T09:26:14;95680.38;;;7.49
40245;BMP280;25963;42.694;23.600;2024-02-15T09:28:40;95730.69;;;8.02
40245;BMP280;25963;42.694;23.600;2024-02-15T09:31:05;95725.41;;;8.11
40245;BMP280;25963;42.694;23.600;2024-02-15T09:33:31;95723.06;;;8.22
40245;BMP280;25963;42.694;23.600;2024-02-15T09:35:56;95726.75;;;8.42
40245;BMP280;25963;42.694;23.600;2024-02-15T09:38:22;95728.66;;;8.60
40245;BMP280;25963;42.694;23.600;2024-02-15T09:40:50;95721.84;;;8.68
40245;BMP280;25963;42.694;23.600;2024-02-15T09:43:16;95691.41;;;8.60
40245;BMP280;25963;42.694;23.600;2024-02-15T09:45:41;95729.25;;;8.82
40245;BMP280;25963;42.694;23.600;2024-02-15T09:48:10;95715.78;;;8.76
40245;BMP280;25963;42.694;23.600;2024-02-15T09:50:35;95714.31;;;8.85
40245;BMP280;25963;42.694;23.600;2024-02-15T09:53:04;95709.25;;;8.96
40245;BMP280;25963;42.694;23.600;2024-02-15T09:55:34;95683.53;;;8.93
40245;BMP280;25963;42.694;23.600;2024-02-15T09:57:59;95674.47;;;8.99
40245;BMP280;25963;42.694;23.600;2024-02-15T10:00:26;95656.88;;;9.02
40245;BMP280;25963;42.694;23.600;2024-02-15T10:02:52;95702.06;;;9.52
40245;BMP280;25963;42.694;23.600;2024-02-15T10:05:19;95698.50;;;9.79
40245;BMP280;25963;42.694;23.600;2024-02-15T10:07:45;95699.19;;;10.12
40245;BMP280;25963;42.694;23.600;2024-02-15T10:12:44;95681.19;;;10.22
40245;BMP280;25963;42.694;23.600;2024-02-15T10:18:00;95679.38;;;10.04
40245;BMP280;25963;42.694;23.600;2024-02-15T10:20:25;95676.19;;;10.00
40245;BMP280;25963;42.694;23.600;2024-02-15T10:25:28;95674.66;;;9.85
40245;BMP280;25963;42.694;23.600;2024-02-15T10:28:14;95665.81;;;9.79
40245;BMP280;25963;42.694;23.600;2024-02-15T10:30:45;95658.09;;;9.81
40245;BMP280;25963;42.694;23.600;2024-02-15T10:33:18;95664.31;;;9.78
40245;BMP280;25963;42.694;23.600;2024-02-15T10:35:45;95664.81;;;9.76
40245;BMP280;25963;42.694;23.600;2024-02-15T10:38:11;95653.84;;;9.74
40245;BMP280;25963;42.694;23.600;2024-02-15T10:40:39;95639.47;;;9.72
40245;BMP280;25963;42.694;23.600;2024-02-15T10:43:09;95646.88;;;9.77
40245;BMP280;25963;42.694;23.600;2024-02-15T10:45:39;95645.13;;;9.74
40245;BMP280;25963;42.694;23.600;2024-02-15T10:48:08;95640.28;;;9.63
40245;BMP280;25963;42.694;23.600;2024-02-15T10:50:33;95644.94;;;9.53
40245;BMP280;25963;42.694;23.600;2024-02-15T10:52:59;95617.66;;;9.35
40245;BMP280;25963;42.694;23.600;2024-02-15T10:55:40;95643.72;;;9.54
40245;BMP280;25963;42.694;23.600;2024-02-15T10:58:12;95627.16;;;9.50
40245;BMP280;25963;42.694;23.600;2024-02-15T11:00:39;95632.91;;;9.58
40245;BMP280;25963;42.694;23.600;2024-02-15T11:03:07;95632.75;;;9.62
40245;BMP280;25963;42.694;23.600;2024-02-15T11:05:37;95633.72;;;9.73
40245;BMP280;25963;42.694;23.600;2024-02-15T11:08:06;95622.94;;;9.68
40245;BMP280;25963;42.694;23.600;2024-02-15T11:10:34;95617.41;;;9.71
40245;BMP280;25963;42.694;23.600;2024-02-15T11:13:00;95618.19;;;9.86
40245;BMP280;25963;42.694;23.600;2024-02-15T11:18:00;95619.75;;;9.78
40245;BMP280;25963;42.694;23.600;2024-02-15T11:23:04;95631.03;;;9.73
40245;BMP280;25963;42.694;23.600;2024-02-15T11:25:33;95627.75;;;9.78
40245;BMP280;25963;42.694;23.600;2024-02-15T11:30:53;95586.69;;;9.99
40245;BMP280;25963;42.694;23.600;2024-02-15T11:33:31;95613.69;;;10.30
40245;BMP280;25963;42.694;23.600;2024-02-15T11:36:07;95612.66;;;10.43
40245;BMP280;25963;42.694;23.600;2024-02-15T11:38:36;95612.84;;;10.24
40245;BMP280;25963;42.694;23.600;2024-02-15T11:41:08;95603.44;;;10.29
40245;BMP280;25963;42.694;23.600;2024-02-15T11:43:48;95610.47;;;10.41
40245;BMP280;25963;42.694;23.600;2024-02-15T11:46:18;95604.75;;;10.48
40245;BMP280;25963;42.694;23.600;2024-02-15T11:48:47;95596.28;;;10.64
40245;BMP280;25963;42.694;23.600;2024-02-15T11:54:08;95596.97;;;10.79
40245;BMP280;25963;42.694;23.600;2024-02-15T11:56:52;95584.34;;;10.94
40245;BMP280;25963;42.694;23.600;2024-02-15T11:59:41;95596.94;;;11.08
40245;BMP280;25963;42.694;23.600;2024-02-15T12:02:19;95589.19;;;11.10
40245;BMP280;25963;42.694;23.600;2024-02-15T12:05:04;95589.75;;;11.00
40245;BMP280;25963;42.694;23.600;2024-02-15T12:07:48;95598.47;;;10.66
40245;BMP280;25963;42.694;23.600;2024-02-15T12:10:32;95589.00;;;10.65
40245;BMP280;25963;42.694;23.600;2024-02-15T12:13:19;95580.13;;;10.73
40245;BMP280;25963;42.694;23.600;2024-02-15T12:16:03;95585.47;;;10.73
40245;BMP280;25963;42.694;23.600;2024-02-15T12:18:48;95581.47;;;10.49
40245;BMP280;25963;42.694;23.600;2024-02-15T12:21:20;95574.59;;;10.42
40245;BMP280;25963;42.694;23.600;2024-02-15T12:23:48;95580.91;;;10.59
40245;BMP280;25963;42.694;23.600;2024-02-15T12:26:18;95581.53;;;10.83
40245;BMP280;25963;42.694;23.600;2024-02-15T12:28:44;95574.75;;;11.02
40245;BMP280;25963;42.694;23.600;2024-02-15T12:31:09;95571.56;;;11.18
40245;BMP280;25963;42.694;23.600;2024-02-15T12:33:38;95568.78;;;11.28
40245;BMP280;25963;42.694;23.600;2024-02-15T12:36:04;95551.00;;;10.90
40245;BMP280;25963;42.694;23.600;2024-02-15T12:38:33;95571.75;;;10.80
40245;BMP280;25963;42.694;23.600;2024-02-15T12:41:23;95574.28;;;10.55
40245;BMP280;25963;42.694;23.600;2024-02-15T12:43:54;95571.25;;;10.47
40245;BMP280;25963;42.694;23.600;2024-02-15T12:46:22;95538.88;;;10.25
40245;BMP280;25963;42.694;23.600;2024-02-15T12:48:47;95547.53;;;10.20
40245;BMP280;25963;42.694;23.600;2024-02-15T12:51:14;95576.16;;;10.34
40245;BMP280;25963;42.694;23.600;2024-02-15T12:53:40;95570.50;;;10.32
40245;BMP280;25963;42.694;23.600;2024-02-15T12:56:07;95525.00;;;10.06
40245;BMP280;25963;42.694;23.600;2024-02-15T12:58:34;95569.25;;;10.42
40245;BMP280;25963;42.694;23.600;2024-02-15T13:01:00;95563.94;;;10.62
40245;BMP280;25963;42.694;23.600;2024-02-15T13:03:26;95489.09;;;10.22
40245;BMP280;25963;42.694;23.600;2024-02-15T13:05:52;95550.47;;;10.86
40245;BMP280;25963;42.694;23.600;2024-02-15T13:08:17;95558.19;;;10.98
40245;BMP280;25963;42.694;23.600;2024-02-15T13:10:43;95576.19;;;11.03
40245;BMP280;25963;42.694;23.600;2024-02-15T13:13:09;95486.03;;;10.44
40245;BMP280;25963;42.694;23.600;2024-02-15T13:15:35;95550.97;;;11.04
40245;BMP280;25963;42.694;23.600;2024-02-15T13:18:01;95561.19;;;11.26
40245;BMP280;25963;42.694;23.600;2024-02-15T13:20:30;95560.94;;;11.24
40245;BMP280;25963;42.694;23.600;2024-02-15T13:23:01;95573.75;;;11.40
40245;BMP280;25963;42.694;23.600;2024-02-15T13:25:29;95529.25;;;11.17
40245;BMP280;25963;42.694;23.600;2024-02-15T13:27:55;95535.16;;;11.41
40245;BMP280;25963;42.694;23.600;2024-02-15T13:30:22;95569.28;;;11.72
40245;BMP280;25963;42.694;23.600;2024-02-15T13:32:52;95564.38;;;11.70
40245;BMP280;25963;42.694;23.600;2024-02-15T13:35:18;95542.88;;;11.39
40245;BMP280;25963;42.694;23.600;2024-02-15T13:37:51;95575.16;;;11.56
40245;BMP280;25963;42.694;23.600;2024-02-15T13:40:18;95500.25;;;10.90
40245;BMP280;25963;42.694;23.600;2024-02-15T13:42:46;95518.78;;;11.13
40245;BMP280;25963;42.694;23.600;2024-02-15T13:45:20;95570.59;;;11.62
40245;BMP280;25963;42.694;23.600;2024-02-15T13:47:51;95562.63;;;11.67
40245;BMP280;25963;42.694;23.600;2024-02-15T13:50:18;95565.97;;;11.82
40245;BMP280;25963;42.694;23.600;2024-02-15T13:52:44;95561.00;;;11.95
40245;BMP280;25963;42.694;23.600;2024-02-15T13:55:12;95562.78;;;12.04
40245;BMP280;25963;42.694;23.600;2024-02-15T13:57:38;95512.28;;;11.91
40245;BMP280;25963;42.694;23.600;2024-02-15T14:00:04;95533.84;;;12.08
40245;BMP280;25963;42.694;23.600;2024-02-15T14:02:31;95574.53;;;12.12
40245;BMP280;25963;42.694;23.600;2024-02-15T14:04:57;95552.38;;;12.12
40245;BMP280;25963;42.694;23.600;2024-02-15T14:07:22;95549.91;;;12.08
40245;BMP280;25963;42.694;23.600;2024-02-15T14:09:48;95566.59;;;11.97
40245;BMP280;25963;42.694;23.600;2024-02-15T14:12:13;95554.06;;;11.83
40245;BMP280;25963;42.694;23.600;2024-02-15T14:14:41;95572.59;;;11.87
40245;BMP280;25963;42.694;23.600;2024-02-15T14:17:08;95576.78;;;11.93
40245;BMP280;25963;42.694;23.600;2024-02-15T14:19:34;95565.22;;;11.82
40245;BMP280;25963;42.694;23.600;2024-02-15T14:21:59;95568.72;;;11.68
40245;BMP280;25963;42.694;23.600;2024-02-15T14:24:27;95527.59;;;11.19
40245;BMP280;25963;42.694;23.600;2024-02-15T14:26:52;95513.00;;;11.00